Time;durP1;ratioP1;P1;durP2;ratioP2;P2;SDS_P1;SDS_P2;PMS_P1;PMS_P2;Temp;Humidity;BMP_temperature;BMP_pressure;BME280_temperature;BME280_humidity;BME280_pressure;Samples;Min_cycle;Max_cycle;Signal;HPM_P1;HPM_P2
2021/04/08 00:01:36;;;;;;;3.87;1.43;;;;;;;;;;4979621;28;20649;-81
2021/04/08 00:04:02;;;;;;;4.93;1.55;;;;;;;;;;4978578;28;20522;-80
2021/04/08 00:06:28;;;;;;;2.80;1.92;;;;;;;;;;4963470;28;20177;-80
2021/04/08 00:08:54;;;;;;;3.28;1.55;;;;;;;;;;4964954;28;20192;-81
2021/04/08 00:11:20;;;;;;;2.40;1.60;;;;;;;;;;4965046;28;20188;-81
2021/04/08 00:13:46;;;;;;;5.38;1.30;;;;;;;;;;4979740;28;20678;-81
2021/04/08 00:16:15;;;;;;;3.47;1.60;;;;;;;;;;4963949;28;20191;-81
2021/04/08 00:18:43;;;;;;;1.90;1.48;;;;;;;;;;4964206;28;20212;-81
2021/04/08 00:21:09;;;;;;;2.63;1.42;;;;;;;;;;4963080;28;20196;-81
2021/04/08 00:23:35;;;;;;;1.73;1.25;;;;;;;;;;4962542;28;20188;-81
2021/04/08 00:26:01;;;;;;;3.87;1.90;;;;;;;;;;4965004;28;20269;-81
2021/04/08 00:28:27;;;;;;;2.78;1.63;;;;;;;;;;4979675;28;20424;-81
2021/04/08 00:30:53;;;;;;;3.60;1.73;;;;;;;;;;4964801;28;20181;-81
2021/04/08 00:33:19;;;;;;;3.90;1.80;;;;;;;;;;4979423;28;20200;-81
2021/04/08 00:35:45;;;;;;;3.25;1.90;;;;;;;;;;4960678;28;20199;-81
2021/04/08 00:38:12;;;;;;;1.63;1.50;;;;;;;;;;4975449;28;20260;-81
2021/04/08 00:40:38;;;;;;;2.47;1.85;;;;;;;;;;4978670;28;20211;-81
2021/04/08 00:43:05;;;;;;;3.58;1.88;;;;;;;;;;4963205;28;20184;-81
2021/04/08 00:45:31;;;;;;;4.28;1.52;;;;;;;;;;4974462;28;20211;-81
2021/04/08 00:47:57;;;;;;;2.97;1.40;;;;;;;;;;4962310;28;20184;-81
2021/04/08 00:50:23;;;;;;;3.22;1.73;;;;;;;;;;4978594;28;20190;-80
2021/04/08 00:53:00;;;;;;;2.67;1.70;;;;;;;;;;4978992;28;20200;-81
2021/04/08 00:55:26;;;;;;;4.07;1.23;;;;;;;;;;4976089;28;20180;-81
2021/04/08 00:57:55;;;;;;;4.10;1.42;;;;;;;;;;4962863;28;20176;-81
2021/04/08 01:00:22;;;;;;;4.18;1.60;;;;;;;;;;4963977;28;20219;-81
2021/04/08 01:02:48;;;;;;;2.42;2.03;;;;;;;;;;4962765;28;20203;-81
2021/04/08 01:05:14;;;;;;;5.65;2.05;;;;;;;;;;4963746;28;20212;-81
2021/04/08 01:07:40;;;;;;;2.13;1.88;;;;;;;;;;4978700;28;20210;-81
2021/04/08 01:10:07;;;;;;;4.15;1.80;;;;;;;;;;4963740;28;20176;-80
2021/04/08 01:12:34;;;;;;;3.15;1.50;;;;;;;;;;4963372;28;20196;-81
2021/04/08 01:15:00;;;;;;;3.22;1.45;;;;;;;;;;4960280;28;20219;-81
2021/04/08 01:17:44;;;;;;;4.35;1.55;;;;;;;;;;4978700;28;20220;-81
2021/04/08 01:20:29;;;;;;;1.92;1.70;;;;;;;;;;4960215;28;20667;-81
2021/04/08 01:22:58;;;;;;;2.25;1.30;;;;;;;;;;4957218;29;20215;-81
2021/04/08 01:25:43;;;;;;;4.60;1.50;;;;;;;;;;4961091;28;20207;-80
2021/04/08 01:28:27;;;;;;;5.13;1.40;;;;;;;;;;4963620;28;20227;-81
2021/04/08 01:30:54;;;;;;;2.17;1.75;;;;;;;;;;4974837;28;20196;-81
2021/04/08 01:33:32;;;;;;;3.95;1.70;;;;;;;;;;4975150;28;20207;-81
2021/04/08 01:36:01;;;;;;;5.03;2.40;;;;;;;;;;4963138;28;20200;-81
2021/04/08 01:38:39;;;;;;;1.98;1.50;;;;;;;;;;4967406;28;20231;-81
2021/04/08 01:41:05;;;;;;;2.85;1.67;;;;;;;;;;4966856;28;20211;-81
2021/04/08 01:43:33;;;;;;;1.60;1.40;;;;;;;;;;4967675;28;20173;-81
2021/04/08 01:45:59;;;;;;;3.75;1.83;;;;;;;;;;4968261;28;20200;-81
2021/04/08 01:48:26;;;;;;;3.35;1.65;;;;;;;;;;4967245;28;20267;-81
2021/04/08 01:50:55;;;;;;;3.38;2.10;;;;;;;;;;4967407;28;20194;-81
2021/04/08 01:53:21;;;;;;;3.45;1.67;;;;;;;;;;4966937;28;20226;-81
2021/04/08 01:55:49;;;;;;;5.00;2.55;;;;;;;;;;4982434;28;20188;-81
2021/04/08 01:58:17;;;;;;;5.03;2.30;;;;;;;;;;4966835;28;20203;-81
2021/04/08 02:00:44;;;;;;;2.38;2.15;;;;;;;;;;4966501;28;20200;-81
2021/04/08 02:03:11;;;;;;;5.55;2.42;;;;;;;;;;4966784;28;20199;-81
2021/04/08 02:05:37;;;;;;;3.33;2.25;;;;;;;;;;4962667;28;20199;-81
2021/04/08 02:08:03;;;;;;;4.70;2.25;;;;;;;;;;4967009;28;20248;-81
2021/04/08 02:10:30;;;;;;;4.00;2.08;;;;;;;;;;4966369;28;20183;-80
2021/04/08 02:12:56;;;;;;;3.97;2.13;;;;;;;;;;4967550;28;20215;-81
2021/04/08 02:15:24;;;;;;;5.43;2.38;;;;;;;;;;4966885;28;20278;-81
2021/04/08 02:17:54;;;;;;;2.50;1.90;;;;;;;;;;4966710;28;20220;-81
2021/04/08 02:20:22;;;;;;;3.40;2.28;;;;;;;;;;4966714;28;20378;-81
2021/04/08 02:22:49;;;;;;;6.43;2.67;;;;;;;;;;4966666;29;20196;-81
2021/04/08 02:25:16;;;;;;;4.68;2.67;;;;;;;;;;4966265;28;20228;-81
2021/04/08 02:27:43;;;;;;;2.70;2.25;;;;;;;;;;4966546;28;20251;-81
2021/04/08 02:30:11;;;;;;;3.65;2.30;;;;;;;;;;4962614;28;20200;-81
2021/04/08 02:32:38;;;;;;;3.85;1.90;;;;;;;;;;4966713;28;20188;-81
2021/04/08 02:35:05;;;;;;;2.53;2.10;;;;;;;;;;4964909;28;20199;-81
2021/04/08 02:37:31;;;;;;;2.50;2.20;;;;;;;;;;4964167;28;20208;-81
2021/04/08 02:39:57;;;;;;;3.08;2.00;;;;;;;;;;4966929;28;20204;-81
2021/04/08 02:42:23;;;;;;;2.78;2.08;;;;;;;;;;4965863;28;20188;-81
2021/04/08 02:44:49;;;;;;;6.38;2.50;;;;;;;;;;4961639;28;20261;-81
2021/04/08 02:47:15;;;;;;;6.10;3.05;;;;;;;;;;4963449;28;20232;-81
2021/04/08 02:49:41;;;;;;;2.80;2.05;;;;;;;;;;4966332;28;20193;-81
2021/04/08 02:52:12;;;;;;;3.70;1.95;;;;;;;;;;4967118;28;20669;-81
2021/04/08 02:55:01;;;;;;;4.65;2.00;;;;;;;;;;4980771;28;20195;-81
2021/04/08 02:57:58;;;;;;;5.70;2.60;;;;;;;;;;4983102;28;20220;-80
2021/04/08 03:00:27;;;;;;;2.47;1.80;;;;;;;;;;4952294;28;20227;-81
2021/04/08 03:02:56;;;;;;;7.28;2.60;;;;;;;;;;4977093;28;20199;-81
2021/04/08 03:05:22;;;;;;;2.50;1.60;;;;;;;;;;4981740;28;20250;-81
2021/04/08 03:07:51;;;;;;;3.65;2.45;;;;;;;;;;4982547;28;20196;-81
2021/04/08 03:10:18;;;;;;;2.60;1.85;;;;;;;;;;4973877;28;20331;-81
2021/04/08 03:12:47;;;;;;;3.33;2.33;;;;;;;;;;4979597;28;20188;-81
2021/04/08 03:15:15;;;;;;;2.63;1.67;;;;;;;;;;4966409;28;20200;-81
2021/04/08 03:17:44;;;;;;;3.58;1.90;;;;;;;;;;4982700;28;20227;-80
2021/04/08 03:20:13;;;;;;;2.72;1.65;;;;;;;;;;4982425;28;20250;-80
2021/04/08 03:22:39;;;;;;;2.90;1.75;;;;;;;;;;4981700;28;20188;-80
2021/04/08 03:25:06;;;;;;;5.45;1.60;;;;;;;;;;4971970;28;20175;-81
2021/04/08 03:27:33;;;;;;;6.38;2.20;;;;;;;;;;4982569;28;20202;-81
2021/04/08 03:29:59;;;;;;;2.40;2.20;;;;;;;;;;4976889;28;20228;-81
2021/04/08 03:32:26;;;;;;;3.88;3.50;;;;;;;;;;4981545;28;20187;-81
2021/04/08 03:34:52;;;;;;;3.03;1.85;;;;;;;;;;4971074;28;20194;-81
2021/04/08 03:37:18;;;;;;;3.97;2.15;;;;;;;;;;4980750;28;20250;-81
2021/04/08 03:39:45;;;;;;;2.42;1.90;;;;;;;;;;4964768;28;20263;-81
2021/04/08 03:42:12;;;;;;;2.65;2.03;;;;;;;;;;4961999;28;20263;-81
2021/04/08 03:44:38;;;;;;;3.60;2.97;;;;;;;;;;4965535;28;20188;-81
2021/04/08 03:47:05;;;;;;;4.13;2.30;;;;;;;;;;4961164;28;20663;-81
2021/04/08 03:49:31;;;;;;;6.40;2.42;;;;;;;;;;4965559;28;20184;-81
2021/04/08 03:51:58;;;;;;;7.07;1.98;;;;;;;;;;4965273;28;20168;-81
2021/04/08 03:54:24;;;;;;;5.18;2.22;;;;;;;;;;4962885;28;20262;-81
2021/04/08 03:56:51;;;;;;;4.30;2.42;;;;;;;;;;4964651;28;20188;-81
2021/04/08 03:59:18;;;;;;;2.25;2.05;;;;;;;;;;4960779;28;20220;-81
2021/04/08 04:01:45;;;;;;;3.35;1.92;;;;;;;;;;4979349;28;20201;-81
2021/04/08 04:04:11;;;;;;;3.42;2.20;;;;;;;;;;4965092;28;20188;-81
2021/04/08 04:06:41;;;;;;;4.03;2.22;;;;;;;;;;4960253;28;20200;-81
2021/04/08 04:09:09;;;;;;;3.55;1.90;;;;;;;;;;4964491;28;20191;-81
2021/04/08 04:11:38;;;;;;;3.83;2.03;;;;;;;;;;4963481;28;20184;-81
2021/04/08 04:14:06;;;;;;;3.25;2.03;;;;;;;;;;4960975;28;20256;-81
2021/04/08 04:16:35;;;;;;;3.50;1.77;;;;;;;;;;4964968;28;20240;-81
2021/04/08 04:19:01;;;;;;;5.65;2.05;;;;;;;;;;4980094;28;20212;-81
2021/04/08 04:21:27;;;;;;;4.68;2.00;;;;;;;;;;4964324;28;20192;-81
2021/04/08 04:23:53;;;;;;;3.35;2.10;;;;;;;;;;4959682;28;20235;-81
2021/04/08 04:26:19;;;;;;;2.65;1.80;;;;;;;;;;4963717;28;20195;-80
2021/04/08 04:28:45;;;;;;;2.10;1.65;;;;;;;;;;4979225;28;20197;-80
2021/04/08 04:31:11;;;;;;;3.17;1.97;;;;;;;;;;4964101;28;20183;-80
2021/04/08 04:33:37;;;;;;;4.20;2.15;;;;;;;;;;4963459;28;20798;-81
2021/04/08 04:36:03;;;;;;;4.40;2.45;;;;;;;;;;4974847;28;20247;-81
2021/04/08 04:38:29;;;;;;;4.43;2.70;;;;;;;;;;4979258;28;20199;-81
2021/04/08 04:40:55;;;;;;;2.67;1.67;;;;;;;;;;4962474;28;20215;-80
2021/04/08 04:43:21;;;;;;;5.38;2.13;;;;;;;;;;4976465;28;20430;-81
2021/04/08 04:45:47;;;;;;;2.35;2.15;;;;;;;;;;4964744;28;20176;-81
2021/04/08 04:48:13;;;;;;;4.32;1.90;;;;;;;;;;4964241;28;20275;-81
2021/04/08 04:50:39;;;;;;;4.07;1.63;;;;;;;;;;4964132;28;20203;-80
2021/04/08 04:53:05;;;;;;;2.72;2.53;;;;;;;;;;4964220;28;20203;-82
2021/04/08 04:55:31;;;;;;;5.30;1.98;;;;;;;;;;4979478;28;20428;-81
2021/04/08 04:57:57;;;;;;;9.98;2.65;;;;;;;;;;4979789;28;20177;-81
2021/04/08 05:00:23;;;;;;;3.55;2.25;;;;;;;;;;4963941;28;20324;-81
2021/04/08 05:02:50;;;;;;;4.65;2.15;;;;;;;;;;4959965;28;20256;-81
2021/04/08 05:05:16;;;;;;;3.50;2.75;;;;;;;;;;4959136;28;20198;-81
2021/04/08 05:07:43;;;;;;;4.13;2.55;;;;;;;;;;4963057;28;20246;-82
2021/04/08 05:10:09;;;;;;;2.38;2.13;;;;;;;;;;4967958;28;20574;-82
2021/04/08 05:12:35;;;;;;;2.20;1.80;;;;;;;;;;4966558;28;20215;-82
2021/04/08 05:15:01;;;;;;;3.03;2.08;;;;;;;;;;4963520;28;20193;-82
2021/04/08 05:17:27;;;;;;;4.93;1.88;;;;;;;;;;4967566;29;20235;-82
2021/04/08 05:19:54;;;;;;;2.78;1.80;;;;;;;;;;4965578;28;20220;-81
2021/04/08 05:22:20;;;;;;;2.92;2.00;;;;;;;;;;4983305;28;20184;-80
2021/04/08 05:24:46;;;;;;;2.15;1.95;;;;;;;;;;4963671;28;20192;-80
2021/04/08 05:27:12;;;;;;;5.43;3.08;;;;;;;;;;4964459;28;20576;-81
2021/04/08 05:29:38;;;;;;;2.28;1.83;;;;;;;;;;4967868;28;20192;-80
2021/04/08 05:32:04;;;;;;;4.70;2.38;;;;;;;;;;4963953;28;20189;-80
2021/04/08 05:34:30;;;;;;;3.95;2.38;;;;;;;;;;4982778;28;20176;-81
2021/04/08 05:36:59;;;;;;;3.13;2.30;;;;;;;;;;4967120;28;20176;-80
2021/04/08 05:39:25;;;;;;;2.47;1.60;;;;;;;;;;4965417;28;20208;-80
2021/04/08 05:41:51;;;;;;;3.28;2.50;;;;;;;;;;4982290;28;20207;-80
2021/04/08 05:44:17;;;;;;;3.40;2.33;;;;;;;;;;4968106;28;20176;-80
2021/04/08 05:46:43;;;;;;;6.80;3.58;;;;;;;;;;4982489;28;20197;-80
2021/04/08 05:49:09;;;;;;;2.90;2.67;;;;;;;;;;4967937;28;20545;-81
2021/04/08 05:51:35;;;;;;;3.47;2.08;;;;;;;;;;4967455;28;20188;-81
2021/04/08 05:54:01;;;;;;;4.03;2.30;;;;;;;;;;4980231;28;20184;-80
2021/04/08 05:56:27;;;;;;;3.38;2.50;;;;;;;;;;4981748;28;20591;-80
2021/04/08 05:58:53;;;;;;;5.40;2.67;;;;;;;;;;4966637;28;20185;-82
2021/04/08 06:01:19;;;;;;;4.22;3.33;;;;;;;;;;4963499;28;20219;-82
2021/04/08 06:03:45;;;;;;;4.72;2.15;;;;;;;;;;4960946;28;20193;-83
2021/04/08 06:06:11;;;;;;;3.13;2.33;;;;;;;;;;4966032;28;20195;-83
2021/04/08 06:08:37;;;;;;;4.47;2.08;;;;;;;;;;4972660;28;20224;-83
2021/04/08 06:11:03;;;;;;;4.90;3.83;;;;;;;;;;4964242;28;20325;-83
2021/04/08 06:13:29;;;;;;;13.35;9.73;;;;;;;;;;4980959;28;20197;-83
2021/04/08 06:15:55;;;;;;;13.07;6.90;;;;;;;;;;4967080;28;20183;-82
2021/04/08 06:18:21;;;;;;;6.45;3.47;;;;;;;;;;4963938;28;20228;-83
2021/04/08 06:20:47;;;;;;;3.50;2.90;;;;;;;;;;4979908;28;20218;-83
2021/04/08 06:23:13;;;;;;;3.22;2.90;;;;;;;;;;4980247;28;20212;-83
2021/04/08 06:25:40;;;;;;;2.83;2.45;;;;;;;;;;4966779;28;20195;-83
2021/04/08 06:28:05;;;;;;;6.97;3.35;;;;;;;;;;4968037;28;20560;-85
2021/04/08 06:30:31;;;;;;;6.75;2.65;;;;;;;;;;4966850;28;20212;-84
2021/04/08 06:32:57;;;;;;;5.95;3.50;;;;;;;;;;4960626;28;20190;-85
2021/04/08 06:35:24;;;;;;;5.05;3.15;;;;;;;;;;4965877;28;20373;-84
2021/04/08 06:37:51;;;;;;;5.57;3.10;;;;;;;;;;4981015;28;20248;-84
2021/04/08 06:40:17;;;;;;;5.07;3.25;;;;;;;;;;4967761;28;20196;-84
2021/04/08 06:42:43;;;;;;;3.10;2.80;;;;;;;;;;4964646;28;20191;-84
2021/04/08 06:45:10;;;;;;;5.78;3.10;;;;;;;;;;4967085;28;20188;-84
2021/04/08 06:47:55;;;;;;;8.50;3.45;;;;;;;;;;4964534;28;20256;-84
2021/04/08 06:50:22;;;;;;;6.10;3.25;;;;;;;;;;4966129;28;20192;-84
2021/04/08 06:52:49;;;;;;;8.82;3.22;;;;;;;;;;4980380;28;20890;-85
2021/04/08 06:55:15;;;;;;;6.15;2.95;;;;;;;;;;4967056;28;20168;-83
2021/04/08 06:57:42;;;;;;;3.67;3.00;;;;;;;;;;4960107;28;20192;-84
2021/04/08 07:00:09;;;;;;;5.47;2.42;;;;;;;;;;4966118;28;20204;-84
2021/04/08 07:02:37;;;;;;;3.33;2.55;;;;;;;;;;4979831;28;20187;-84
2021/04/08 07:05:05;;;;;;;4.50;3.05;;;;;;;;;;4962425;28;20234;-84
2021/04/08 07:07:31;;;;;;;3.65;2.60;;;;;;;;;;4960339;28;20192;-83
2021/04/08 07:09:57;;;;;;;3.50;2.38;;;;;;;;;;4957650;28;20196;-84
2021/04/08 07:12:23;;;;;;;5.00;2.40;;;;;;;;;;4947340;28;20199;-85
2021/04/08 07:14:51;;;;;;;2.67;2.30;;;;;;;;;;4956533;28;20527;-81
2021/04/08 07:17:17;;;;;;;5.45;3.03;;;;;;;;;;4962592;28;20646;-84
2021/04/08 07:19:44;;;;;;;2.57;2.33;;;;;;;;;;4964334;28;20225;-84
2021/04/08 07:22:12;;;;;;;5.68;2.85;;;;;;;;;;4964950;28;20431;-83
2021/04/08 07:24:41;;;;;;;5.63;2.25;;;;;;;;;;4964079;28;20188;-84
2021/04/08 07:27:08;;;;;;;24.30;3.50;;;;;;;;;;4965346;28;20189;-85
2021/04/08 07:29:40;;;;;;;6.80;3.20;;;;;;;;;;4965477;28;20216;-85
2021/04/08 07:32:09;;;;;;;4.35;2.45;;;;;;;;;;4958125;28;20207;-84
2021/04/08 07:34:37;;;;;;;7.03;3.42;;;;;;;;;;4964507;28;20515;-84
2021/04/08 07:37:04;;;;;;;4.95;3.20;;;;;;;;;;4964853;28;20208;-85
2021/04/08 07:39:37;;;;;;;5.95;3.17;;;;;;;;;;4964180;28;20208;-82
2021/04/08 07:42:05;;;;;;;3.45;2.42;;;;;;;;;;4958858;28;20199;-83
2021/04/08 07:44:42;;;;;;;7.45;2.63;;;;;;;;;;4978707;28;20187;-82
2021/04/08 07:47:18;;;;;;;3.90;2.53;;;;;;;;;;4968002;28;20380;-83
2021/04/08 07:49:45;;;;;;;2.53;2.33;;;;;;;;;;4969707;28;20192;-82
2021/04/08 07:52:18;;;;;;;4.32;2.75;;;;;;;;;;4965931;28;20188;-83
2021/04/08 07:55:03;;;;;;;4.10;2.50;;;;;;;;;;4960554;28;20247;-83
2021/04/08 07:57:29;;;;;;;7.15;4.38;;;;;;;;;;4964573;28;20259;-84
2021/04/08 07:59:55;;;;;;;7.40;2.90;;;;;;;;;;4960949;28;20489;-83
2021/04/08 08:02:26;;;;;;;3.40;2.72;;;;;;;;;;4964192;28;20189;-84
2021/04/08 08:05:12;;;;;;;4.75;2.95;;;;;;;;;;4977830;28;20204;-83
2021/04/08 08:07:38;;;;;;;8.23;3.50;;;;;;;;;;4975768;28;20176;-82
2021/04/08 08:10:04;;;;;;;5.67;4.67;;;;;;;;;;4965370;28;20255;-83
2021/04/08 08:12:33;;;;;;;9.82;4.47;;;;;;;;;;4963849;28;20490;-83
2021/04/08 08:15:15;;;;;;;5.00;2.97;;;;;;;;;;4964356;28;20217;-83
2021/04/08 08:17:41;;;;;;;4.60;3.00;;;;;;;;;;4964001;28;20223;-84
2021/04/08 08:20:08;;;;;;;4.88;3.90;;;;;;;;;;4962045;28;20258;-83
2021/04/08 08:22:35;;;;;;;3.35;2.90;;;;;;;;;;4963895;28;20172;-83
2021/04/08 08:25:01;;;;;;;6.60;3.75;;;;;;;;;;4964917;28;20263;-84
2021/04/08 08:27:45;;;;;;;5.95;3.70;;;;;;;;;;4961490;28;20181;-83
2021/04/08 08:30:14;;;;;;;4.70;3.20;;;;;;;;;;4956240;28;20193;-84
2021/04/08 08:33:00;;;;;;;3.78;3.38;;;;;;;;;;4954911;28;20188;-83
2021/04/08 08:35:26;;;;;;;3.72;3.03;;;;;;;;;;4957064;28;20217;-84
2021/04/08 08:37:52;;;;;;;9.90;4.45;;;;;;;;;;4957471;28;20267;-85
2021/04/08 08:40:18;;;;;;;4.88;3.50;;;;;;;;;;4963772;28;20666;-84
2021/04/08 08:42:44;;;;;;;7.57;4.43;;;;;;;;;;4958743;28;20188;-83
2021/04/08 08:45:11;;;;;;;6.07;4.28;;;;;;;;;;4963425;28;20195;-84
2021/04/08 08:47:39;;;;;;;5.10;4.63;;;;;;;;;;4964154;28;20208;-84
2021/04/08 08:50:10;;;;;;;6.38;4.60;;;;;;;;;;4960621;28;20192;-84
2021/04/08 08:52:37;;;;;;;6.15;4.80;;;;;;;;;;4979568;28;20413;-84
2021/04/08 08:55:06;;;;;;;8.43;4.55;;;;;;;;;;4964300;28;20244;-80
2021/04/08 08:57:32;;;;;;;6.05;5.38;;;;;;;;;;4964461;28;20215;-82
2021/04/08 08:59:58;;;;;;;9.98;5.15;;;;;;;;;;4963951;28;20208;-84
2021/04/08 09:02:25;;;;;;;10.25;5.10;;;;;;;;;;4960648;28;20191;-84
2021/04/08 09:04:51;;;;;;;6.63;5.18;;;;;;;;;;4961310;28;20716;-85
2021/04/08 09:07:18;;;;;;;9.82;6.20;;;;;;;;;;4980546;28;20254;-84
2021/04/08 09:09:47;;;;;;;8.50;5.75;;;;;;;;;;4964790;28;20197;-84
2021/04/08 09:12:17;;;;;;;9.80;4.53;;;;;;;;;;4958785;28;20244;-85
2021/04/08 09:14:44;;;;;;;5.40;4.90;;;;;;;;;;4958840;28;20226;-85
2021/04/08 09:17:10;;;;;;;8.43;4.97;;;;;;;;;;4975869;28;20227;-84
2021/04/08 09:19:37;;;;;;;5.38;4.85;;;;;;;;;;4957113;28;20284;-84
2021/04/08 09:22:06;;;;;;;5.45;4.95;;;;;;;;;;4980432;28;20215;-86
2021/04/08 09:24:33;;;;;;;5.90;4.78;;;;;;;;;;4962323;28;20184;-85
2021/04/08 09:27:00;;;;;;;5.15;3.90;;;;;;;;;;4962114;28;20204;-82
2021/04/08 09:29:42;;;;;;;5.78;4.07;;;;;;;;;;4961096;28;20228;-81
2021/04/08 09:32:24;;;;;;;4.55;3.45;;;;;;;;;;4975228;28;20199;-82
2021/04/08 09:35:05;;;;;;;5.00;4.05;;;;;;;;;;4960847;28;25505;-82
2021/04/08 09:37:47;;;;;;;5.10;3.72;;;;;;;;;;4962564;28;20172;-81
2021/04/08 09:40:22;;;;;;;5.28;3.50;;;;;;;;;;4963533;28;20199;-80
2021/04/08 09:42:50;;;;;;;7.13;3.83;;;;;;;;;;4962478;28;20827;-80
2021/04/08 09:45:19;;;;;;;5.55;3.80;;;;;;;;;;4962992;28;20256;-81
2021/04/08 09:47:45;;;;;;;9.23;4.32;;;;;;;;;;4960518;28;20714;-82
2021/04/08 09:50:31;;;;;;;4.80;4.00;;;;;;;;;;4963205;28;20205;-80
2021/04/08 09:52:57;;;;;;;5.25;4.15;;;;;;;;;;4962876;28;20195;-78
2021/04/08 09:55:33;;;;;;;7.78;4.78;;;;;;;;;;4978298;28;20242;-79
2021/04/08 09:58:04;;;;;;;4.40;4.00;;;;;;;;;;4980240;28;20181;-79
2021/04/08 10:00:30;;;;;;;5.43;4.05;;;;;;;;;;4964342;28;20216;-80
2021/04/08 10:03:00;;;;;;;7.82;5.53;;;;;;;;;;4962465;28;20215;-80
2021/04/08 10:05:31;;;;;;;5.00;4.28;;;;;;;;;;4970236;28;20211;-81
2021/04/08 10:07:58;;;;;;;9.82;4.80;;;;;;;;;;4966550;28;20207;-81
2021/04/08 10:10:38;;;;;;;4.97;4.00;;;;;;;;;;4981908;28;20189;-80
2021/04/08 10:13:15;;;;;;;6.35;4.20;;;;;;;;;;4965590;28;20183;-81
2021/04/08 10:15:41;;;;;;;6.70;4.95;;;;;;;;;;4965632;28;20192;-80
2021/04/08 10:18:11;;;;;;;7.40;4.50;;;;;;;;;;4979948;28;20224;-80
2021/04/08 10:20:37;;;;;;;7.40;5.30;;;;;;;;;;4980338;28;20244;-80
2021/04/08 10:23:04;;;;;;;4.20;3.90;;;;;;;;;;4965457;28;20199;-79
2021/04/08 10:25:30;;;;;;;9.65;4.05;;;;;;;;;;4967070;28;20200;-80
2021/04/08 10:27:56;;;;;;;4.85;4.03;;;;;;;;;;4974698;28;20172;-80
2021/04/08 10:30:22;;;;;;;4.78;4.28;;;;;;;;;;4965286;28;20279;-80
2021/04/08 10:32:49;;;;;;;8.05;5.05;;;;;;;;;;4962265;28;20180;-80
2021/04/08 10:35:29;;;;;;;4.85;4.35;;;;;;;;;;4966210;28;20267;-82
2021/04/08 10:38:05;;;;;;;6.10;5.60;;;;;;;;;;4963042;28;20180;-81
2021/04/08 10:40:32;;;;;;;10.95;5.28;;;;;;;;;;4980664;28;20204;-80
2021/04/08 10:43:08;;;;;;;8.00;4.63;;;;;;;;;;4981627;28;20634;-79
2021/04/08 10:45:34;;;;;;;8.65;5.25;;;;;;;;;;4962507;28;20196;-79
2021/04/08 10:48:01;;;;;;;7.25;4.80;;;;;;;;;;4980722;28;20199;-80
2021/04/08 10:50:27;;;;;;;6.07;4.70;;;;;;;;;;4958541;28;20189;-80
2021/04/08 10:52:53;;;;;;;8.45;5.50;;;;;;;;;;4965694;28;20195;-79
2021/04/08 10:55:20;;;;;;;5.78;4.43;;;;;;;;;;4948155;29;20177;-80
2021/04/08 10:57:46;;;;;;;5.43;4.53;;;;;;;;;;4960658;28;20534;-79
2021/04/08 11:00:12;;;;;;;5.50;4.10;;;;;;;;;;4975239;28;20877;-80
2021/04/08 11:02:40;;;;;;;5.22;4.70;;;;;;;;;;4960179;28;20181;-80
2021/04/08 11:05:08;;;;;;;5.32;4.55;;;;;;;;;;4964060;28;20638;-80
2021/04/08 11:07:35;;;;;;;7.05;4.93;;;;;;;;;;4977626;28;20173;-80
2021/04/08 11:10:09;;;;;;;7.93;5.28;;;;;;;;;;4966040;28;20180;-81
2021/04/08 11:12:35;;;;;;;5.15;4.10;;;;;;;;;;4965042;28;20188;-80
2021/04/08 11:15:02;;;;;;;5.15;4.43;;;;;;;;;;4965388;28;20189;-82
2021/04/08 11:17:28;;;;;;;6.85;4.75;;;;;;;;;;4964098;28;20760;-80
2021/04/08 11:19:55;;;;;;;4.97;4.47;;;;;;;;;;4964620;28;20212;-80
2021/04/08 11:22:26;;;;;;;10.10;4.35;;;;;;;;;;4961409;28;20185;-80
2021/04/08 11:24:53;;;;;;;6.18;4.70;;;;;;;;;;4965430;28;20188;-80
2021/04/08 11:27:25;;;;;;;4.85;4.40;;;;;;;;;;4963440;28;20201;-79
2021/04/08 11:29:52;;;;;;;4.30;4.00;;;;;;;;;;4962341;28;20592;-78
2021/04/08 11:32:18;;;;;;;6.60;4.40;;;;;;;;;;4965142;28;20646;-80
2021/04/08 11:34:45;;;;;;;6.80;2.90;;;;;;;;;;4963611;28;20247;-79
2021/04/08 11:37:12;;;;;;;2.72;2.42;;;;;;;;;;4964097;28;20200;-79
2021/04/08 11:39:38;;;;;;;5.03;2.45;;;;;;;;;;4964404;28;20295;-80
2021/04/08 11:42:13;;;;;;;2.67;2.08;;;;;;;;;;4965486;28;20192;-82
2021/04/08 11:44:39;;;;;;;3.30;2.08;;;;;;;;;;4964989;28;20184;-78
2021/04/08 11:47:16;;;;;;;4.10;3.70;;;;;;;;;;4962017;28;20180;-78
2021/04/08 11:49:52;;;;;;;4.72;2.47;;;;;;;;;;4964766;28;20278;-78
2021/04/08 11:52:20;;;;;;;5.10;3.10;;;;;;;;;;4963667;28;20190;-80
2021/04/08 11:55:04;;;;;;;3.90;3.50;;;;;;;;;;4964009;28;20245;-80
2021/04/08 11:57:30;;;;;;;4.00;3.33;;;;;;;;;;4960241;28;20269;-79
2021/04/08 12:00:14;;;;;;;4.68;3.22;;;;;;;;;;4965705;28;20239;-79
2021/04/08 12:02:40;;;;;;;4.47;3.90;;;;;;;;;;4955821;28;20176;-79
2021/04/08 12:05:13;;;;;;;3.13;2.75;;;;;;;;;;4955392;28;20231;-81
2021/04/08 12:07:43;;;;;;;7.28;3.78;;;;;;;;;;4978493;28;20211;-79
2021/04/08 12:10:26;;;;;;;5.30;2.90;;;;;;;;;;4978990;28;20561;-78
2021/04/08 12:12:55;;;;;;;3.70;3.40;;;;;;;;;;4964653;29;20176;-78
2021/04/08 12:15:31;;;;;;;3.50;3.20;;;;;;;;;;4960152;28;20209;-78
2021/04/08 12:17:57;;;;;;;2.90;2.70;;;;;;;;;;4956990;28;20236;-78
2021/04/08 12:20:24;;;;;;;3.37;3.07;;;;;;;;;;4961160;28;20209;-80
2021/04/08 12:22:51;;;;;;;6.28;2.95;;;;;;;;;;4963329;28;20451;-80
2021/04/08 12:25:19;;;;;;;8.05;3.17;;;;;;;;;;4979830;28;20227;-79
2021/04/08 12:27:45;;;;;;;2.58;2.38;;;;;;;;;;4964129;28;20379;-80
2021/04/08 12:30:12;;;;;;;4.57;3.80;;;;;;;;;;4962656;28;20278;-80
2021/04/08 12:32:39;;;;;;;3.80;2.90;;;;;;;;;;4963044;28;20191;-80
2021/04/08 12:35:09;;;;;;;8.13;5.60;;;;;;;;;;4962052;28;20435;-80
2021/04/08 12:37:35;;;;;;;3.90;2.77;;;;;;;;;;4963489;28;20395;-79
2021/04/08 12:40:01;;;;;;;5.73;3.70;;;;;;;;;;4979948;28;20469;-80
2021/04/08 12:42:30;;;;;;;3.20;3.00;;;;;;;;;;4960035;28;20428;-77
2021/04/08 12:44:56;;;;;;;3.70;2.47;;;;;;;;;;4957658;29;20443;-80
2021/04/08 12:47:22;;;;;;;3.00;2.70;;;;;;;;;;4958715;28;20441;-78
2021/04/08 12:49:48;;;;;;;3.57;2.87;;;;;;;;;;4963140;28;20440;-78
2021/04/08 12:52:14;;;;;;;3.23;2.73;;;;;;;;;;4966555;28;20455;-77
2021/04/08 12:54:40;;;;;;;5.50;2.83;;;;;;;;;;4962617;28;20458;-79
2021/04/08 12:57:06;;;;;;;3.27;3.07;;;;;;;;;;4964254;28;20980;-79
2021/04/08 12:59:33;;;;;;;3.30;3.00;;;;;;;;;;4958248;28;20472;-78
2021/04/08 13:01:59;;;;;;;3.83;3.47;;;;;;;;;;4959966;28;20612;-80
2021/04/08 13:04:25;;;;;;;3.70;3.40;;;;;;;;;;4964692;28;20721;-79
2021/04/08 13:06:52;;;;;;;3.40;3.07;;;;;;;;;;4973900;28;20571;-79
2021/04/08 13:09:18;;;;;;;4.50;3.40;;;;;;;;;;4962286;28;20442;-79
2021/04/08 13:11:44;;;;;;;3.60;3.20;;;;;;;;;;4976219;28;20452;-79
2021/04/08 13:14:10;;;;;;;3.60;2.93;;;;;;;;;;4960460;28;20471;-78
2021/04/08 13:16:35;;;;;;;3.90;3.50;;;;;;;;;;4978477;28;20474;-79
2021/04/08 13:19:02;;;;;;;4.20;3.30;;;;;;;;;;4962059;28;20517;-77
2021/04/08 13:21:28;;;;;;;3.83;2.60;;;;;;;;;;4959397;28;20478;-79
2021/04/08 13:23:55;;;;;;;4.10;2.87;;;;;;;;;;4971044;28;20443;-81
2021/04/08 13:26:21;;;;;;;4.43;2.60;;;;;;;;;;4957143;28;20453;-78
2021/04/08 13:28:47;;;;;;;3.53;2.70;;;;;;;;;;4963583;28;20439;-77
2021/04/08 13:31:13;;;;;;;3.83;3.20;;;;;;;;;;4963897;28;20548;-80
2021/04/08 13:33:39;;;;;;;4.37;3.60;;;;;;;;;;4965731;28;20422;-78
2021/04/08 13:36:05;;;;;;;3.70;3.07;;;;;;;;;;4967552;28;20422;-78
2021/04/08 13:38:31;;;;;;;3.40;3.10;;;;;;;;;;4961034;28;20464;-78
2021/04/08 13:40:58;;;;;;;3.53;3.13;;;;;;;;;;4966271;28;20449;-78
2021/04/08 13:43:24;;;;;;;4.07;3.33;;;;;;;;;;4983160;28;20434;-79
2021/04/08 13:45:50;;;;;;;3.20;2.90;;;;;;;;;;4967317;28;20568;-77
2021/04/08 13:48:16;;;;;;;4.30;3.23;;;;;;;;;;4961754;28;20418;-79
2021/04/08 13:50:42;;;;;;;3.83;3.10;;;;;;;;;;4972506;28;20453;-78
2021/04/08 13:53:08;;;;;;;2.90;2.70;;;;;;;;;;4981830;28;20407;-78
2021/04/08 13:55:33;;;;;;;4.77;2.67;;;;;;;;;;4966083;28;20409;-78
2021/04/08 13:57:59;;;;;;;3.00;2.70;;;;;;;;;;4981540;28;21043;-79
2021/04/08 14:00:26;;;;;;;6.07;4.07;;;;;;;;;;4964139;28;20513;-78
2021/04/08 14:02:55;;;;;;;3.40;3.10;;;;;;;;;;4961802;28;20436;-78
2021/04/08 14:05:21;;;;;;;3.53;3.23;;;;;;;;;;4962548;28;20424;-78
2021/04/08 14:07:50;;;;;;;3.83;3.53;;;;;;;;;;4965429;28;20479;-78
2021/04/08 14:10:18;;;;;;;3.03;2.60;;;;;;;;;;4964989;28;20511;-78
2021/04/08 14:12:44;;;;;;;4.05;3.00;;;;;;;;;;4969215;28;20444;-77
2021/04/08 14:15:10;;;;;;;3.00;2.80;;;;;;;;;;4961727;28;20207;-77
2021/04/08 14:17:36;;;;;;;6.03;2.83;;;;;;;;;;4979444;28;20254;-77
2021/04/08 14:20:06;;;;;;;2.60;2.40;;;;;;;;;;4964017;28;20225;-82
2021/04/08 14:22:32;;;;;;;3.28;2.75;;;;;;;;;;4964894;28;20180;-79
2021/04/08 14:24:58;;;;;;;3.65;2.60;;;;;;;;;;4964602;28;20180;-81
2021/04/08 14:27:24;;;;;;;4.03;2.72;;;;;;;;;;4965437;28;20184;-84
2021/04/08 14:29:50;;;;;;;4.60;3.10;;;;;;;;;;4964345;28;20204;-86
2021/04/08 14:32:16;;;;;;;3.58;3.28;;;;;;;;;;4961798;28;20271;-85
2021/04/08 14:34:42;;;;;;;2.88;2.67;;;;;;;;;;4964789;28;20320;-82
2021/04/08 14:37:09;;;;;;;6.07;2.87;;;;;;;;;;4968621;28;20247;-82
2021/04/08 14:39:35;;;;;;;3.15;2.50;;;;;;;;;;4963329;28;20871;-84
2021/04/08 14:42:01;;;;;;;3.83;3.28;;;;;;;;;;4963691;28;20176;-83
2021/04/08 14:44:27;;;;;;;4.30;2.83;;;;;;;;;;4965196;28;20232;-85
2021/04/08 14:46:53;;;;;;;3.63;2.78;;;;;;;;;;4963910;29;20219;-83
2021/04/08 14:49:20;;;;;;;4.30;3.00;;;;;;;;;;4961709;28;20173;-84